RYS57M EPKT-LBBG
Flight info
| Callsign | RYS57M |
|---|---|
| Flight time | 1h 34m |
| Altitude | 23000 |
| Route | REGTO T195 RAZEC/N0444F350 DCT KENIN DCT DENAK DCT IDARU DCT MATEL T555 NESAR |
| Aircraft | B738/M-SDE2E3FGHIRWXY/LB1 |
Departure
| Time | 2026-04-28 15:05 |
|---|---|
| Airport | Katowice Wojciech Korfanty International Airport (EPKT) |
Arrival
| Time | 2026-04-28 16:39 |
|---|---|
| Airport | Burgas Airport (LBBG) |
| Time | Latitude | Longitude | Altitude | Speed | Heading |
|---|---|---|---|---|---|
| 2026-04-28 14:45 | 50.47179 | 19.07279 | 1000 ft | 0 kts | 180° |
| 2026-04-28 14:55 | 50.47201 | 19.07279 | 999 ft | 4 kts | 180° |
| 2026-04-28 14:56 | 50.47222 | 19.07279 | 997 ft | 4 kts | 159° |
| 2026-04-28 14:56 | 50.47235 | 19.07255 | 999 ft | 4 kts | 92° |
| 2026-04-28 14:56 | 50.47235 | 19.07217 | 997 ft | 2 kts | 90° |
| 2026-04-28 14:56 | 50.47235 | 19.07215 | 997 ft | 0 kts | 90° |
| 2026-04-28 14:58 | 50.47235 | 19.07220 | 997 ft | 2 kts | 90° |
| 2026-04-28 14:59 | 50.47235 | 19.07272 | 997 ft | 8 kts | 90° |
| 2026-04-28 14:59 | 50.47235 | 19.07385 | 1002 ft | 12 kts | 90° |
| 2026-04-28 14:59 | 50.47234 | 19.07509 | 1002 ft | 11 kts | 90° |
| 2026-04-28 14:59 | 50.47234 | 19.07637 | 999 ft | 13 kts | 90° |
| 2026-04-28 15:00 | 50.47233 | 19.07808 | 997 ft | 18 kts | 90° |
| 2026-04-28 15:00 | 50.47233 | 19.08000 | 1002 ft | 17 kts | 90° |
| 2026-04-28 15:00 | 50.47233 | 19.08185 | 1000 ft | 17 kts | 90° |
| 2026-04-28 15:00 | 50.47232 | 19.08360 | 1000 ft | 16 kts | 90° |
| 2026-04-28 15:01 | 50.47232 | 19.08532 | 1003 ft | 15 kts | 90° |
| 2026-04-28 15:01 | 50.47232 | 19.08697 | 1003 ft | 15 kts | 90° |
| 2026-04-28 15:01 | 50.47231 | 19.08844 | 1003 ft | 13 kts | 90° |
| 2026-04-28 15:01 | 50.47231 | 19.08985 | 1003 ft | 13 kts | 90° |
| 2026-04-28 15:02 | 50.47230 | 19.09120 | 997 ft | 12 kts | 90° |
| 2026-04-28 15:02 | 50.47230 | 19.09254 | 1003 ft | 12 kts | 90° |
| 2026-04-28 15:02 | 50.47245 | 19.09376 | 1003 ft | 12 kts | 37° |
| 2026-04-28 15:02 | 50.47325 | 19.09389 | 999 ft | 12 kts | 358° |
| 2026-04-28 15:03 | 50.47404 | 19.09389 | 1001 ft | 11 kts | 0° |
| 2026-04-28 15:03 | 50.47482 | 19.09391 | 998 ft | 11 kts | 1° |
| 2026-04-28 15:03 | 50.47557 | 19.09392 | 1000 ft | 11 kts | 360° |
| 2026-04-28 15:03 | 50.47596 | 19.09344 | 999 ft | 7 kts | 271° |
| 2026-04-28 15:04 | 50.47596 | 19.09340 | 1000 ft | 0 kts | 271° |
| 2026-04-28 15:04 | 50.47597 | 19.09222 | 1001 ft | 37 kts | 270° |
| 2026-04-28 15:04 | 50.47599 | 19.08426 | 996 ft | 107 kts | 270° |
| 2026-04-28 15:04 | 50.47605 | 19.06946 | 1006 ft | 161 kts | 272° |
| 2026-04-28 15:05 | 50.47583 | 19.05083 | 1507 ft | 174 kts | 271° |
| 2026-04-28 15:05 | 50.47555 | 19.03167 | 2315 ft | 179 kts | 271° |
| 2026-04-28 15:05 | 50.47499 | 19.01083 | 2730 ft | 208 kts | 269° |
| 2026-04-28 15:05 | 50.47406 | 18.98698 | 3140 ft | 228 kts | 267° |
| 2026-04-28 15:06 | 50.46943 | 18.96260 | 3696 ft | 240 kts | 238° |
| 2026-04-28 15:06 | 50.45740 | 18.94402 | 4200 ft | 254 kts | 210° |
| 2026-04-28 15:06 | 50.44006 | 18.93513 | 4675 ft | 269 kts | 182° |
| 2026-04-28 15:06 | 50.42124 | 18.93587 | 5538 ft | 275 kts | 175° |
| 2026-04-28 15:07 | 50.40216 | 18.93712 | 6556 ft | 273 kts | 179° |
| 2026-04-28 15:07 | 50.38288 | 18.93752 | 7338 ft | 281 kts | 180° |
| 2026-04-28 15:07 | 50.36345 | 18.94280 | 8044 ft | 289 kts | 153° |
| 2026-04-28 15:07 | 50.34819 | 18.96294 | 8911 ft | 291 kts | 129° |
| 2026-04-28 15:08 | 50.33517 | 18.98780 | 9620 ft | 300 kts | 128° |
| 2026-04-28 15:08 | 50.32208 | 19.01337 | 10323 ft | 308 kts | 128° |
| 2026-04-28 15:08 | 50.30829 | 19.04017 | 10725 ft | 327 kts | 128° |
| 2026-04-28 15:08 | 50.29337 | 19.06882 | 10996 ft | 349 kts | 128° |
| 2026-04-28 15:09 | 50.27770 | 19.09850 | 11617 ft | 357 kts | 129° |
| 2026-04-28 15:09 | 50.26166 | 19.12858 | 12394 ft | 361 kts | 129° |
| 2026-04-28 15:09 | 50.24544 | 19.15878 | 13155 ft | 365 kts | 129° |
| 2026-04-28 15:09 | 50.23455 | 19.17894 | 13650 ft | 368 kts | 129° |
| 2026-04-28 15:10 | 50.21239 | 19.21983 | 14547 ft | 375 kts | 129° |
| 2026-04-28 15:10 | 50.19539 | 19.25110 | 15207 ft | 379 kts | 130° |
| 2026-04-28 15:10 | 50.17830 | 19.28246 | 15966 ft | 380 kts | 130° |
| 2026-04-28 15:10 | 50.16108 | 19.31402 | 16639 ft | 384 kts | 130° |
| 2026-04-28 15:11 | 50.14361 | 19.34600 | 17271 ft | 390 kts | 130° |
| 2026-04-28 15:11 | 50.12590 | 19.37837 | 17908 ft | 395 kts | 130° |
| 2026-04-28 15:11 | 50.10797 | 19.41110 | 18552 ft | 399 kts | 130° |
| 2026-04-28 15:11 | 50.08988 | 19.44408 | 19108 ft | 403 kts | 130° |
| 2026-04-28 15:12 | 50.07155 | 19.47746 | 19670 ft | 407 kts | 130° |
| 2026-04-28 15:12 | 50.05305 | 19.51111 | 20215 ft | 411 kts | 130° |
| 2026-04-28 15:12 | 50.03437 | 19.54504 | 20762 ft | 416 kts | 131° |
| 2026-04-28 15:12 | 50.01539 | 19.57947 | 21234 ft | 422 kts | 131° |
| 2026-04-28 15:13 | 49.99616 | 19.61431 | 21771 ft | 426 kts | 131° |
| 2026-04-28 15:13 | 49.97675 | 19.64942 | 22324 ft | 429 kts | 131° |
| 2026-04-28 15:13 | 49.95721 | 19.68472 | 22849 ft | 433 kts | 131° |
| 2026-04-28 15:13 | 49.93750 | 19.72029 | 23358 ft | 437 kts | 131° |
| 2026-04-28 15:14 | 49.91755 | 19.75622 | 23841 ft | 441 kts | 131° |
| 2026-04-28 15:14 | 49.89746 | 19.79238 | 24248 ft | 445 kts | 131° |
| 2026-04-28 15:14 | 49.87716 | 19.82885 | 24657 ft | 448 kts | 131° |
| 2026-04-28 15:14 | 49.85667 | 19.86561 | 25068 ft | 452 kts | 131° |
| 2026-04-28 15:15 | 49.83607 | 19.90253 | 25434 ft | 456 kts | 132° |
| 2026-04-28 15:15 | 49.82227 | 19.92722 | 25660 ft | 459 kts | 132° |
| 2026-04-28 15:15 | 49.79413 | 19.97750 | 26185 ft | 463 kts | 132° |
| 2026-04-28 15:15 | 49.77295 | 20.01529 | 26591 ft | 466 kts | 132° |
| 2026-04-28 15:16 | 49.75165 | 20.05323 | 26965 ft | 469 kts | 133° |
| 2026-04-28 15:16 | 49.73015 | 20.09148 | 27318 ft | 473 kts | 133° |
| 2026-04-28 15:16 | 49.70850 | 20.12993 | 27674 ft | 476 kts | 133° |
| 2026-04-28 15:16 | 49.68669 | 20.16861 | 28042 ft | 479 kts | 133° |
| 2026-04-28 15:17 | 49.66472 | 20.20752 | 28393 ft | 482 kts | 133° |
| 2026-04-28 15:17 | 49.64285 | 20.24620 | 28718 ft | 486 kts | 133° |
| 2026-04-28 15:17 | 49.62053 | 20.28561 | 29008 ft | 489 kts | 133° |
| 2026-04-28 15:17 | 49.59801 | 20.32531 | 29332 ft | 492 kts | 133° |
| 2026-04-28 15:18 | 49.57542 | 20.36509 | 29664 ft | 495 kts | 133° |
| 2026-04-28 15:18 | 49.55267 | 20.40506 | 29990 ft | 497 kts | 133° |
| 2026-04-28 15:18 | 49.52978 | 20.44525 | 30280 ft | 500 kts | 133° |
| 2026-04-28 15:18 | 49.50675 | 20.48561 | 30525 ft | 503 kts | 133° |
| 2026-04-28 15:19 | 49.48361 | 20.52611 | 30756 ft | 505 kts | 133° |
| 2026-04-28 15:19 | 49.46036 | 20.56675 | 31063 ft | 506 kts | 133° |
| 2026-04-28 15:19 | 49.43711 | 20.60733 | 31352 ft | 507 kts | 134° |
| 2026-04-28 15:19 | 49.41377 | 20.64798 | 31683 ft | 506 kts | 134° |
| 2026-04-28 15:20 | 49.38999 | 20.68772 | 32032 ft | 504 kts | 137° |
| 2026-04-28 15:20 | 49.36523 | 20.72562 | 32352 ft | 503 kts | 139° |
| 2026-04-28 15:20 | 49.33996 | 20.76274 | 32685 ft | 503 kts | 140° |
| 2026-04-28 15:20 | 49.31457 | 20.79966 | 32992 ft | 503 kts | 140° |
| 2026-04-28 15:21 | 49.28930 | 20.83655 | 33300 ft | 503 kts | 139° |
| 2026-04-28 15:21 | 49.26402 | 20.87378 | 33610 ft | 503 kts | 139° |
| 2026-04-28 15:21 | 49.23903 | 20.91080 | 34160 ft | 497 kts | 139° |
| 2026-04-28 15:21 | 49.21434 | 20.94748 | 34506 ft | 495 kts | 139° |
| 2026-04-28 15:22 | 49.18962 | 20.98417 | 34748 ft | 495 kts | 139° |
| 2026-04-28 15:22 | 49.16516 | 21.02038 | 34933 ft | 497 kts | 139° |
| 2026-04-28 15:22 | 49.14032 | 21.05707 | 35131 ft | 498 kts | 139° |
| 2026-04-28 15:23 | 49.08809 | 21.12694 | 35193 ft | 499 kts | 147° |
| 2026-04-28 15:23 | 49.04152 | 21.17870 | 35205 ft | 496 kts | 148° |
| 2026-04-28 15:24 | 48.98565 | 21.23950 | 35187 ft | 491 kts | 148° |
| 2026-04-28 15:24 | 48.93024 | 21.30069 | 35182 ft | 491 kts | 148° |
| 2026-04-28 15:25 | 48.87550 | 21.36172 | 35177 ft | 491 kts | 148° |
| 2026-04-28 15:25 | 48.82045 | 21.42309 | 35158 ft | 490 kts | 148° |
| 2026-04-28 15:26 | 48.76522 | 21.48444 | 35174 ft | 492 kts | 148° |
| 2026-04-28 15:26 | 48.70966 | 21.54592 | 35178 ft | 495 kts | 148° |
| 2026-04-28 15:27 | 48.65409 | 21.60726 | 35177 ft | 499 kts | 148° |
| 2026-04-28 15:27 | 48.59787 | 21.66916 | 35173 ft | 501 kts | 148° |
| 2026-04-28 15:28 | 48.54136 | 21.73120 | 35159 ft | 502 kts | 148° |
| 2026-04-28 15:28 | 48.48477 | 21.79315 | 35162 ft | 503 kts | 148° |
| 2026-04-28 15:29 | 48.42811 | 21.85501 | 35176 ft | 509 kts | 148° |
| 2026-04-28 15:29 | 48.37031 | 21.91799 | 35155 ft | 514 kts | 147° |
| 2026-04-28 15:30 | 48.31649 | 21.98965 | 35165 ft | 519 kts | 138° |
| 2026-04-28 15:30 | 48.26518 | 22.06650 | 35128 ft | 520 kts | 137° |
| 2026-04-28 15:31 | 48.21404 | 22.14285 | 35151 ft | 518 kts | 138° |
| 2026-04-28 15:31 | 48.16249 | 22.21836 | 35151 ft | 516 kts | 139° |
| 2026-04-28 15:32 | 48.11125 | 22.29259 | 35156 ft | 515 kts | 139° |
| 2026-04-28 15:32 | 48.05976 | 22.36688 | 35147 ft | 514 kts | 139° |
| 2026-04-28 15:33 | 48.00834 | 22.44093 | 35148 ft | 512 kts | 139° |
| 2026-04-28 15:33 | 47.95701 | 22.51468 | 35146 ft | 511 kts | 139° |
| 2026-04-28 15:34 | 47.90604 | 22.58772 | 35152 ft | 510 kts | 139° |
| 2026-04-28 15:34 | 47.85480 | 22.66092 | 35136 ft | 510 kts | 139° |
| 2026-04-28 15:35 | 47.80339 | 22.73415 | 35134 ft | 510 kts | 139° |
| 2026-04-28 15:35 | 47.72655 | 22.84319 | 35132 ft | 511 kts | 139° |
| 2026-04-28 15:36 | 47.67500 | 22.91610 | 35133 ft | 512 kts | 140° |
| 2026-04-28 15:36 | 47.62325 | 22.98908 | 35135 ft | 513 kts | 140° |
| 2026-04-28 15:37 | 47.57140 | 23.06199 | 35130 ft | 514 kts | 140° |
| 2026-04-28 15:37 | 47.51978 | 23.13438 | 35127 ft | 514 kts | 140° |
| 2026-04-28 15:38 | 47.46769 | 23.20721 | 35127 ft | 515 kts | 140° |
| 2026-04-28 15:38 | 47.41548 | 23.28000 | 35124 ft | 515 kts | 140° |
| 2026-04-28 15:39 | 47.36316 | 23.35274 | 35134 ft | 516 kts | 140° |
| 2026-04-28 15:39 | 47.31114 | 23.42486 | 35116 ft | 516 kts | 140° |
| 2026-04-28 15:40 | 47.25883 | 23.49717 | 35114 ft | 515 kts | 140° |
| 2026-04-28 15:40 | 47.20641 | 23.56942 | 35119 ft | 515 kts | 140° |
| 2026-04-28 15:41 | 47.15402 | 23.64142 | 35117 ft | 515 kts | 140° |
| 2026-04-28 15:41 | 47.10192 | 23.71283 | 35117 ft | 514 kts | 140° |
| 2026-04-28 15:42 | 47.04961 | 23.78433 | 35106 ft | 513 kts | 140° |
| 2026-04-28 15:42 | 46.99733 | 23.85559 | 35110 ft | 512 kts | 140° |
| 2026-04-28 15:43 | 46.94509 | 23.92658 | 35102 ft | 511 kts | 140° |
| 2026-04-28 15:43 | 46.89325 | 23.99684 | 35112 ft | 511 kts | 140° |
| 2026-04-28 15:44 | 46.84101 | 24.06743 | 35106 ft | 511 kts | 140° |
| 2026-04-28 15:44 | 46.78862 | 24.13804 | 35102 ft | 511 kts | 141° |
| 2026-04-28 15:45 | 46.73668 | 24.20785 | 35111 ft | 511 kts | 141° |
| 2026-04-28 15:45 | 46.68424 | 24.27815 | 35109 ft | 511 kts | 141° |
| 2026-04-28 15:46 | 46.63173 | 24.34833 | 35087 ft | 512 kts | 141° |
| 2026-04-28 15:46 | 46.57950 | 24.41796 | 35103 ft | 512 kts | 141° |
| 2026-04-28 15:47 | 46.52679 | 24.48803 | 35104 ft | 513 kts | 141° |
| 2026-04-28 15:47 | 46.47405 | 24.55794 | 35108 ft | 514 kts | 141° |
| 2026-04-28 15:48 | 46.42112 | 24.62791 | 35106 ft | 515 kts | 141° |
| 2026-04-28 15:48 | 46.36837 | 24.69747 | 35101 ft | 515 kts | 141° |
| 2026-04-28 15:49 | 46.31529 | 24.76726 | 35074 ft | 516 kts | 141° |
| 2026-04-28 15:49 | 46.26212 | 24.83699 | 35099 ft | 517 kts | 141° |
| 2026-04-28 15:50 | 46.20895 | 24.90652 | 35105 ft | 518 kts | 141° |
| 2026-04-28 15:50 | 46.15527 | 24.97652 | 35096 ft | 519 kts | 141° |
| 2026-04-28 15:51 | 46.10158 | 25.04635 | 35108 ft | 519 kts | 141° |
| 2026-04-28 15:51 | 46.04818 | 25.11561 | 35084 ft | 519 kts | 141° |
| 2026-04-28 15:52 | 45.99450 | 25.18506 | 35087 ft | 518 kts | 141° |
| 2026-04-28 15:52 | 45.94087 | 25.25424 | 35083 ft | 516 kts | 141° |
| 2026-04-28 15:53 | 45.88742 | 25.32299 | 35097 ft | 515 kts | 141° |
| 2026-04-28 15:53 | 45.83442 | 25.39100 | 35097 ft | 513 kts | 141° |
| 2026-04-28 15:54 | 45.78112 | 25.45920 | 35102 ft | 511 kts | 141° |
| 2026-04-28 15:54 | 45.72808 | 25.52690 | 35098 ft | 510 kts | 141° |
| 2026-04-28 15:55 | 45.67516 | 25.59425 | 35076 ft | 508 kts | 141° |
| 2026-04-28 15:55 | 45.62270 | 25.66084 | 35085 ft | 507 kts | 141° |
| 2026-04-28 15:56 | 45.56984 | 25.72777 | 35076 ft | 507 kts | 141° |
| 2026-04-28 15:56 | 45.51700 | 25.79450 | 35085 ft | 507 kts | 141° |
| 2026-04-28 15:57 | 45.46413 | 25.86109 | 35082 ft | 507 kts | 141° |
| 2026-04-28 15:57 | 45.41156 | 25.92713 | 35066 ft | 507 kts | 141° |
| 2026-04-28 15:58 | 45.35860 | 25.99349 | 35065 ft | 507 kts | 141° |
| 2026-04-28 15:58 | 45.30559 | 26.05975 | 35072 ft | 507 kts | 141° |
| 2026-04-28 15:59 | 45.26144 | 26.11481 | 35067 ft | 507 kts | 141° |
| 2026-04-28 15:59 | 45.19971 | 26.19158 | 35065 ft | 507 kts | 141° |
| 2026-04-28 16:00 | 45.14660 | 26.25745 | 35070 ft | 507 kts | 141° |
| 2026-04-28 16:00 | 45.09352 | 26.32313 | 35058 ft | 506 kts | 141° |
| 2026-04-28 16:01 | 45.04040 | 26.38871 | 35066 ft | 505 kts | 141° |
| 2026-04-28 16:01 | 44.98828 | 26.45455 | 35065 ft | 505 kts | 136° |
| 2026-04-28 16:02 | 44.94021 | 26.52707 | 35078 ft | 505 kts | 134° |
| 2026-04-28 16:02 | 44.89309 | 26.60063 | 35068 ft | 504 kts | 134° |
| 2026-04-28 16:03 | 44.84562 | 26.67324 | 35072 ft | 503 kts | 135° |
| 2026-04-28 16:03 | 44.79815 | 26.74482 | 35069 ft | 502 kts | 135° |
| 2026-04-28 16:04 | 44.75038 | 26.81659 | 35054 ft | 501 kts | 135° |
| 2026-04-28 16:04 | 44.71070 | 26.87613 | 35072 ft | 500 kts | 135° |
| 2026-04-28 16:05 | 44.65502 | 26.95953 | 35075 ft | 500 kts | 135° |
| 2026-04-28 16:05 | 44.60529 | 27.02653 | 35078 ft | 497 kts | 142° |
| 2026-04-28 16:06 | 44.55209 | 27.08863 | 35072 ft | 497 kts | 143° |
| 2026-04-28 16:06 | 44.49870 | 27.15032 | 35069 ft | 497 kts | 143° |
| 2026-04-28 16:07 | 44.44551 | 27.21270 | 35039 ft | 498 kts | 142° |
| 2026-04-28 16:08 | 44.36611 | 27.30645 | 35062 ft | 498 kts | 142° |
| 2026-04-28 16:08 | 44.31348 | 27.36844 | 35069 ft | 497 kts | 142° |
| 2026-04-28 16:09 | 44.23400 | 27.46168 | 35075 ft | 497 kts | 142° |
| 2026-04-28 16:10 | 44.15461 | 27.55446 | 35072 ft | 495 kts | 142° |
| 2026-04-28 16:10 | 44.08437 | 27.63626 | 35067 ft | 493 kts | 142° |
| 2026-04-28 16:11 | 44.02303 | 27.70748 | 34852 ft | 495 kts | 143° |
| 2026-04-28 16:11 | 43.97911 | 27.75836 | 34451 ft | 492 kts | 143° |
| 2026-04-28 16:12 | 43.92651 | 27.81917 | 33975 ft | 493 kts | 143° |
| 2026-04-28 16:12 | 43.90009 | 27.84964 | 33706 ft | 493 kts | 143° |
| 2026-04-28 16:13 | 43.84732 | 27.91042 | 33172 ft | 493 kts | 143° |
| 2026-04-28 16:13 | 43.82085 | 27.94086 | 32890 ft | 493 kts | 143° |
| 2026-04-28 16:13 | 43.76810 | 28.00140 | 32270 ft | 489 kts | 143° |
| 2026-04-28 16:14 | 43.71649 | 28.06053 | 31343 ft | 480 kts | 143° |
| 2026-04-28 16:14 | 43.66540 | 28.11891 | 30405 ft | 472 kts | 143° |
| 2026-04-28 16:15 | 43.61505 | 28.17569 | 29410 ft | 461 kts | 148° |
| 2026-04-28 16:15 | 43.58687 | 28.19477 | 28952 ft | 445 kts | 169° |
| 2026-04-28 16:15 | 43.55688 | 28.20164 | 28483 ft | 431 kts | 182° |
| 2026-04-28 16:16 | 43.49970 | 28.18897 | 27583 ft | 410 kts | 201° |
| 2026-04-28 16:16 | 43.47274 | 28.17825 | 27114 ft | 406 kts | 202° |
| 2026-04-28 16:17 | 43.41897 | 28.15637 | 26223 ft | 399 kts | 201° |
| 2026-04-28 16:17 | 43.39238 | 28.14572 | 25787 ft | 396 kts | 201° |
| 2026-04-28 16:17 | 43.36584 | 28.13525 | 25336 ft | 394 kts | 201° |
| 2026-04-28 16:17 | 43.33959 | 28.12499 | 24906 ft | 391 kts | 201° |
| 2026-04-28 16:18 | 43.31344 | 28.11484 | 24489 ft | 389 kts | 201° |
| 2026-04-28 16:18 | 43.28778 | 28.10492 | 24071 ft | 387 kts | 201° |
| 2026-04-28 16:18 | 43.26190 | 28.09494 | 23628 ft | 385 kts | 200° |
| 2026-04-28 16:18 | 43.23609 | 28.08500 | 23133 ft | 383 kts | 200° |
| 2026-04-28 16:19 | 43.21049 | 28.07515 | 22672 ft | 381 kts | 200° |
| 2026-04-28 16:19 | 43.18509 | 28.06539 | 22249 ft | 377 kts | 200° |
| 2026-04-28 16:19 | 43.15988 | 28.05571 | 21814 ft | 374 kts | 200° |
| 2026-04-28 16:19 | 43.13497 | 28.04615 | 21395 ft | 371 kts | 200° |
| 2026-04-28 16:20 | 43.11014 | 28.03663 | 20977 ft | 369 kts | 200° |
| 2026-04-28 16:20 | 43.08581 | 28.02730 | 20569 ft | 366 kts | 200° |
| 2026-04-28 16:20 | 43.06137 | 28.01794 | 20162 ft | 364 kts | 200° |
| 2026-04-28 16:20 | 43.03705 | 28.00864 | 19756 ft | 361 kts | 200° |
| 2026-04-28 16:21 | 43.01287 | 27.99939 | 19345 ft | 359 kts | 200° |
| 2026-04-28 16:21 | 42.98872 | 27.99016 | 18938 ft | 358 kts | 200° |
| 2026-04-28 16:21 | 42.96481 | 27.98103 | 18541 ft | 356 kts | 200° |
| 2026-04-28 16:21 | 42.94101 | 27.97195 | 18099 ft | 355 kts | 200° |
| 2026-04-28 16:22 | 42.91752 | 27.96300 | 17662 ft | 353 kts | 200° |
| 2026-04-28 16:22 | 42.89393 | 27.95402 | 17244 ft | 350 kts | 200° |
| 2026-04-28 16:22 | 42.87050 | 27.94510 | 16831 ft | 348 kts | 200° |
| 2026-04-28 16:22 | 42.84723 | 27.93625 | 16434 ft | 346 kts | 200° |
| 2026-04-28 16:23 | 42.82410 | 27.92746 | 16032 ft | 343 kts | 200° |
| 2026-04-28 16:23 | 42.80112 | 27.91873 | 15639 ft | 341 kts | 199° |
| 2026-04-28 16:23 | 42.77858 | 27.91018 | 15257 ft | 339 kts | 199° |
| 2026-04-28 16:23 | 42.75592 | 27.90160 | 14874 ft | 338 kts | 199° |
| 2026-04-28 16:24 | 42.73414 | 27.89036 | 14465 ft | 330 kts | 216° |
| 2026-04-28 16:24 | 42.71696 | 27.87057 | 14164 ft | 321 kts | 228° |
| 2026-04-28 16:24 | 42.70129 | 27.84909 | 13766 ft | 320 kts | 229° |
| 2026-04-28 16:24 | 42.68561 | 27.82761 | 13343 ft | 319 kts | 228° |
| 2026-04-28 16:25 | 42.66991 | 27.80638 | 12942 ft | 317 kts | 228° |
| 2026-04-28 16:25 | 42.65423 | 27.78536 | 12568 ft | 315 kts | 228° |
| 2026-04-28 16:25 | 42.63886 | 27.76482 | 12234 ft | 314 kts | 228° |
| 2026-04-28 16:25 | 42.62321 | 27.74393 | 11852 ft | 317 kts | 228° |
| 2026-04-28 16:26 | 42.60738 | 27.72283 | 11481 ft | 321 kts | 228° |
| 2026-04-28 16:26 | 42.59130 | 27.70140 | 11087 ft | 326 kts | 227° |
| 2026-04-28 16:26 | 42.57499 | 27.67971 | 10694 ft | 327 kts | 227° |
| 2026-04-28 16:26 | 42.55887 | 27.65833 | 10439 ft | 321 kts | 227° |
| 2026-04-28 16:27 | 42.54308 | 27.63739 | 10271 ft | 312 kts | 227° |
| 2026-04-28 16:27 | 42.52777 | 27.61710 | 10114 ft | 303 kts | 228° |
| 2026-04-28 16:27 | 42.49848 | 27.57827 | 9640 ft | 293 kts | 228° |
| 2026-04-28 16:28 | 42.48392 | 27.55898 | 9318 ft | 292 kts | 228° |
| 2026-04-28 16:28 | 42.46944 | 27.53979 | 9005 ft | 290 kts | 228° |
| 2026-04-28 16:28 | 42.45503 | 27.52072 | 8694 ft | 288 kts | 228° |
| 2026-04-28 16:28 | 42.44086 | 27.50202 | 8551 ft | 281 kts | 228° |
| 2026-04-28 16:29 | 42.41359 | 27.46606 | 8296 ft | 266 kts | 228° |
| 2026-04-28 16:29 | 42.38778 | 27.43214 | 8090 ft | 251 kts | 228° |
| 2026-04-28 16:30 | 42.37552 | 27.41598 | 7870 ft | 249 kts | 228° |
| 2026-04-28 16:30 | 42.36320 | 27.39970 | 7646 ft | 246 kts | 229° |
| 2026-04-28 16:30 | 42.35096 | 27.38354 | 7411 ft | 246 kts | 229° |
| 2026-04-28 16:30 | 42.33872 | 27.36740 | 7175 ft | 245 kts | 229° |
| 2026-04-28 16:31 | 42.32650 | 27.35131 | 6934 ft | 245 kts | 229° |
| 2026-04-28 16:31 | 42.31428 | 27.33527 | 6684 ft | 244 kts | 229° |
| 2026-04-28 16:31 | 42.30313 | 27.31832 | 6421 ft | 238 kts | 246° |
| 2026-04-28 16:31 | 42.29970 | 27.29733 | 6183 ft | 226 kts | 279° |
| 2026-04-28 16:32 | 42.30415 | 27.27743 | 5933 ft | 220 kts | 302° |
| 2026-04-28 16:32 | 42.32384 | 27.24670 | 5459 ft | 214 kts | 317° |
| 2026-04-28 16:32 | 42.33592 | 27.23597 | 5218 ft | 211 kts | 345° |
| 2026-04-28 16:33 | 42.35052 | 27.23521 | 5032 ft | 214 kts | 12° |
| 2026-04-28 16:33 | 42.35993 | 27.23995 | 4876 ft | 214 kts | 29° |
| 2026-04-28 16:33 | 42.37479 | 27.25746 | 4593 ft | 215 kts | 41° |
| 2026-04-28 16:33 | 42.38562 | 27.27138 | 4349 ft | 214 kts | 41° |
| 2026-04-28 16:34 | 42.39639 | 27.28542 | 4123 ft | 217 kts | 42° |
| 2026-04-28 16:34 | 42.40719 | 27.29963 | 3893 ft | 215 kts | 43° |
| 2026-04-28 16:34 | 42.41776 | 27.31361 | 3659 ft | 214 kts | 43° |
| 2026-04-28 16:34 | 42.42836 | 27.32766 | 3455 ft | 211 kts | 44° |
| 2026-04-28 16:35 | 42.43871 | 27.34136 | 3222 ft | 204 kts | 44° |
| 2026-04-28 16:35 | 42.44871 | 27.35460 | 2993 ft | 198 kts | 45° |
| 2026-04-28 16:35 | 42.45837 | 27.36739 | 2758 ft | 191 kts | 45° |
| 2026-04-28 16:35 | 42.46775 | 27.37981 | 2534 ft | 184 kts | 45° |
| 2026-04-28 16:36 | 42.47678 | 27.39176 | 2383 ft | 180 kts | 45° |
| 2026-04-28 16:36 | 42.48575 | 27.40362 | 2136 ft | 179 kts | 46° |
| 2026-04-28 16:36 | 42.49447 | 27.41516 | 1903 ft | 170 kts | 47° |
| 2026-04-28 16:36 | 42.50257 | 27.42587 | 1725 ft | 153 kts | 47° |
| 2026-04-28 16:37 | 42.50985 | 27.43535 | 1528 ft | 141 kts | 46° |
| 2026-04-28 16:37 | 42.51684 | 27.44458 | 1391 ft | 140 kts | 48° |
| 2026-04-28 16:37 | 42.52380 | 27.45374 | 1150 ft | 139 kts | 49° |
| 2026-04-28 16:38 | 42.53733 | 27.47219 | 713 ft | 138 kts | 52° |
| 2026-04-28 16:38 | 42.54424 | 27.48133 | 575 ft | 140 kts | 49° |
| 2026-04-28 16:38 | 42.55137 | 27.49060 | 400 ft | 144 kts | 49° |
| 2026-04-28 16:38 | 42.55847 | 27.49986 | 238 ft | 139 kts | 50° |
| 2026-04-28 16:39 | 42.56506 | 27.50861 | 173 ft | 119 kts | 44° |
| 2026-04-28 16:39 | 42.56995 | 27.51503 | 174 ft | 76 kts | 44° |
| 2026-04-28 16:39 | 42.57231 | 27.51817 | 173 ft | 22 kts | 44° |
| 2026-04-28 16:39 | 42.57277 | 27.52000 | 172 ft | 21 kts | 87° |
| 2026-04-28 16:40 | 42.57277 | 27.52146 | 172 ft | 9 kts | 95° |
| 2026-04-28 16:40 | 42.57259 | 27.52214 | 172 ft | 0 kts | 127° |
| 2026-04-28 16:41 | 42.57247 | 27.52227 | 172 ft | 5 kts | 147° |
| 2026-04-28 16:41 | 42.57192 | 27.52232 | 173 ft | 11 kts | 200° |
| 2026-04-28 16:41 | 42.57112 | 27.52148 | 173 ft | 17 kts | 220° |
| 2026-04-28 16:42 | 42.57011 | 27.52033 | 173 ft | 20 kts | 220° |
| 2026-04-28 16:42 | 42.56907 | 27.51913 | 173 ft | 19 kts | 220° |
| 2026-04-28 16:42 | 42.56810 | 27.51792 | 173 ft | 19 kts | 231° |
| 2026-04-28 16:42 | 42.56739 | 27.51679 | 173 ft | 14 kts | 229° |
| 2026-04-28 16:43 | 42.56676 | 27.51581 | 173 ft | 13 kts | 229° |
| 2026-04-28 16:43 | 42.56615 | 27.51488 | 172 ft | 13 kts | 227° |
| 2026-04-28 16:43 | 42.56570 | 27.51418 | 172 ft | 9 kts | 229° |
| 2026-04-28 16:43 | 42.56530 | 27.51356 | 172 ft | 9 kts | 229° |
| 2026-04-28 16:44 | 42.56490 | 27.51342 | 172 ft | 7 kts | 142° |
| 2026-04-28 16:44 | 42.56455 | 27.51382 | 172 ft | 6 kts | 139° |
| 2026-04-28 16:44 | 42.56441 | 27.51399 | 172 ft | 0 kts | 139° |
| 2026-04-28 16:44 | 42.56440 | 27.51400 | 172 ft | 0 kts | 139° |